Disclaimer

Please do not use the information listed here in-flight or in-navigation, as they are not provided to us by the airports but are provided by volunteers, so they might be outdated.

Search


Regions


Airport information page

Radio informations:
INFO - 118.2 MHz

Airport informations:
Latitude: 37° 29' 34.65" N
Longitude: 057° 18' 29.59" E
Elevation: 3499 feet - 1066 meters
Operating hours: Remarks
Operating agency: Civil government, landing fees and diplomatic clearance may be required
Timezone: UTC+3:30
Fuel: N/A

Runway information:
07/25 - 10582 x 148 feet< - >3225 x 45 meters

Recent METARs:
OIMN 182300Z 00000KT 6000 -RA FEW045 BKN090 06/03 Q1015
OIMN 182300Z 00000KT 6000 -RA FEW045 BKN090 06/03 Q1015
OIMN 182300Z 00000KT 6000 -RA FEW045 BKN090 06/03 Q1015

Airport on the map: